Terminal Aerodrome Forecast
Issued by NWS

Home | Current Version | Previous Version | Text Only | Print | Product List | Glossary Off
Versions: 1 2 3 4 5 6 7 8 9 10 11 12 13 14 15

000
FTUS43 KICT 221100
TAFHUT
TAF
KHUT 221140Z 2212/2312 06007KT P6SM SKC
     FM221400 10009KT P6SM SKC
     FM221700 16009KT P6SM SKC
     FM222000 17013KT P6SM BKN100=

USA.gov is the U.S. government's official web portal to all federal, state and local government web resources and services.